createdAt,value
2018-09-29T00:01:15.562Z,12.00
2018-09-29T00:03:43.814Z,11.90
2018-09-29T00:06:12.170Z,11.90
2018-09-29T00:08:40.885Z,11.90
2018-09-29T00:11:09.665Z,11.80
2018-09-29T00:13:38.196Z,11.70
2018-09-29T00:16:06.788Z,11.60
2018-09-29T00:18:35.847Z,11.70
2018-09-29T00:21:04.210Z,11.70
2018-09-29T00:23:32.742Z,11.60
2018-09-29T00:26:01.150Z,11.60
2018-09-29T00:28:29.489Z,11.60
2018-09-29T00:30:58.032Z,11.60
2018-09-29T00:33:26.351Z,11.70
2018-09-29T00:35:54.882Z,11.70
2018-09-29T00:38:23.108Z,11.60
2018-09-29T00:40:51.333Z,11.50
2018-09-29T00:43:20.342Z,11.50
2018-09-29T00:45:48.698Z,11.40
2018-09-29T00:48:16.967Z,11.40
2018-09-29T00:50:45.589Z,11.30
2018-09-29T00:53:14.328Z,11.40
2018-09-29T00:55:42.748Z,11.40
2018-09-29T00:58:11.201Z,11.40
2018-09-29T01:00:39.492Z,11.30
2018-09-29T01:03:07.880Z,11.40
2018-09-29T01:05:36.402Z,11.40
2018-09-29T01:08:04.897Z,11.50
2018-09-29T01:10:33.324Z,11.50
2018-09-29T01:13:01.617Z,11.40
2018-09-29T01:15:29.865Z,11.30
2018-09-29T01:17:58.102Z,11.30
2018-09-29T01:20:26.423Z,11.30
2018-09-29T01:22:54.798Z,11.30
2018-09-29T01:25:23.073Z,11.30
2018-09-29T01:27:51.330Z,11.30
2018-09-29T01:30:19.539Z,11.40
2018-09-29T01:32:47.913Z,11.40
2018-09-29T01:35:16.336Z,11.40
2018-09-29T01:37:44.566Z,11.50
2018-09-29T01:40:12.817Z,11.50
2018-09-29T01:42:41.094Z,11.40
2018-09-29T01:45:09.585Z,11.40
2018-09-29T01:47:37.852Z,11.50
2018-09-29T01:50:06.230Z,11.30
2018-09-29T01:52:34.577Z,11.30
2018-09-29T01:55:02.782Z,11.30
2018-09-29T01:57:31.964Z,11.20
2018-09-29T02:00:00.236Z,11.20
2018-09-29T02:02:28.545Z,11.20
2018-09-29T02:04:56.867Z,11.20
2018-09-29T02:07:25.129Z,11.20
2018-09-29T02:09:54.124Z,11.20
2018-09-29T02:12:22.587Z,11.00
2018-09-29T02:14:50.938Z,11.00
2018-09-29T02:17:19.195Z,11.00
2018-09-29T02:19:47.402Z,10.80
2018-09-29T02:22:15.882Z,10.80
2018-09-29T02:24:44.145Z,10.80
2018-09-29T02:27:12.607Z,10.70
2018-09-29T02:29:41.100Z,10.60
2018-09-29T02:32:09.486Z,10.50
2018-09-29T02:34:38.021Z,10.60
2018-09-29T02:37:06.424Z,10.50
2018-09-29T02:39:34.714Z,10.50
2018-09-29T02:42:03.060Z,10.60
2018-09-29T02:44:31.450Z,10.60
2018-09-29T02:46:59.735Z,10.60
2018-09-29T02:49:27.945Z,10.80
2018-09-29T02:51:56.720Z,10.80
2018-09-29T02:54:25.026Z,10.70
2018-09-29T02:56:53.373Z,10.70
2018-09-29T02:59:21.969Z,10.60
2018-09-29T03:01:50.230Z,10.60
2018-09-29T03:04:18.543Z,10.50
2018-09-29T03:06:46.914Z,10.40
2018-09-29T03:09:15.644Z,10.50
2018-09-29T03:11:43.897Z,10.30
2018-09-29T03:14:12.162Z,10.40
2018-09-29T03:16:40.359Z,10.50
2018-09-29T03:19:08.618Z,10.20
2018-09-29T03:21:36.841Z,10.20
2018-09-29T03:24:05.228Z,10.10
2018-09-29T03:26:34.044Z,10.00
2018-09-29T03:29:02.318Z,10.00
2018-09-29T03:31:30.570Z,9.90
2018-09-29T03:33:59.034Z,9.80
2018-09-29T03:36:27.359Z,9.90
2018-09-29T03:38:55.718Z,9.90
2018-09-29T03:41:23.973Z,9.80
2018-09-29T03:43:52.277Z,9.80
2018-09-29T03:46:20.524Z,9.80
2018-09-29T03:48:48.900Z,9.60
2018-09-29T03:51:17.217Z,9.60
2018-09-29T03:53:45.529Z,9.70
2018-09-29T03:56:13.770Z,9.70
2018-09-29T03:58:42.041Z,9.60
2018-09-29T04:01:10.261Z,9.70
2018-09-29T04:03:38.662Z,9.50
2018-09-29T04:06:06.926Z,9.50
2018-09-29T04:08:35.241Z,9.40
2018-09-29T04:11:03.479Z,9.40
2018-09-29T04:13:31.775Z,9.40
2018-09-29T04:16:00.025Z,9.30
2018-09-29T04:18:28.239Z,9.30
2018-09-29T04:20:56.579Z,9.20
2018-09-29T04:23:24.961Z,9.20
2018-09-29T04:25:53.386Z,9.20
2018-09-29T04:28:21.660Z,9.10
2018-09-29T04:30:49.922Z,9.00
2018-09-29T04:33:18.146Z,9.10
2018-09-29T04:35:46.468Z,9.00
2018-09-29T04:38:14.803Z,8.90
2018-09-29T04:40:43.245Z,8.80
2018-09-29T04:43:11.612Z,8.80
2018-09-29T04:45:39.882Z,8.80
2018-09-29T04:48:08.141Z,8.80
2018-09-29T04:50:36.425Z,8.70
2018-09-29T04:53:04.718Z,8.70
2018-09-29T04:55:33.004Z,8.70
2018-09-29T04:58:01.420Z,8.60
2018-09-29T05:00:29.733Z,8.60
2018-09-29T05:02:58.538Z,8.60
2018-09-29T05:05:26.970Z,8.60
2018-09-29T05:07:55.514Z,8.70
2018-09-29T05:10:23.786Z,8.80
2018-09-29T05:12:52.143Z,8.60
2018-09-29T05:15:20.402Z,8.60
2018-09-29T05:17:48.625Z,8.60
2018-09-29T05:20:16.877Z,8.50
2018-09-29T05:22:45.302Z,8.50
2018-09-29T05:25:13.630Z,8.50
2018-09-29T05:27:42.042Z,8.40
2018-09-29T05:30:10.978Z,8.40
2018-09-29T05:32:39.261Z,8.30
2018-09-29T05:35:07.556Z,8.20
2018-09-29T05:37:35.990Z,8.20
2018-09-29T05:40:04.394Z,8.20
2018-09-29T05:42:32.757Z,8.20
2018-09-29T05:45:00.981Z,8.20
2018-09-29T05:47:29.247Z,8.30
2018-09-29T05:49:57.610Z,8.20
2018-09-29T05:52:25.919Z,8.20
2018-09-29T05:54:54.203Z,8.20
2018-09-29T05:57:22.716Z,8.20
2018-09-29T05:59:51.064Z,8.20
2018-09-29T06:02:19.310Z,8.30
2018-09-29T06:04:47.576Z,8.30
2018-09-29T06:07:15.910Z,8.30
2018-09-29T06:09:44.223Z,8.40
2018-09-29T06:12:12.692Z,8.60
2018-09-29T06:14:42.129Z,8.70
2018-09-29T06:17:10.378Z,8.70
2018-09-29T06:19:38.758Z,8.70
2018-09-29T06:22:07.074Z,8.80
2018-09-29T06:24:35.549Z,9.00
2018-09-29T06:27:03.844Z,9.20
2018-09-29T06:29:32.146Z,9.40
2018-09-29T06:32:00.342Z,9.30
2018-09-29T06:34:28.562Z,9.10
2018-09-29T06:36:57.282Z,9.10
2018-09-29T06:39:25.435Z,9.20
2018-09-29T06:41:53.785Z,9.30
2018-09-29T06:44:22.158Z,9.10
2018-09-29T06:46:50.548Z,8.80
2018-09-29T06:49:18.808Z,8.80
2018-09-29T06:51:47.170Z,8.60
2018-09-29T06:54:15.450Z,8.70
2018-09-29T06:56:43.930Z,8.80
2018-09-29T06:59:12.241Z,8.80
2018-09-29T07:01:40.675Z,8.90
2018-09-29T07:04:09.072Z,9.00
2018-09-29T07:06:37.359Z,9.10
2018-09-29T07:09:08.914Z,9.30
2018-09-29T07:11:37.370Z,9.30
2018-09-29T07:14:05.839Z,9.50
2018-09-29T07:16:34.152Z,9.50
2018-09-29T07:19:02.459Z,9.40
2018-09-29T07:21:30.874Z,9.30
2018-09-29T07:23:59.259Z,9.50
2018-09-29T07:26:27.764Z,9.50
2018-09-29T07:28:56.419Z,9.60
2018-09-29T07:31:24.740Z,9.70
2018-09-29T07:33:52.980Z,9.90
2018-09-29T07:36:21.278Z,10.00
2018-09-29T07:38:49.617Z,10.40
2018-09-29T07:41:18.038Z,10.50
2018-09-29T07:43:46.542Z,10.70
2018-09-29T07:46:15.085Z,10.70
2018-09-29T07:48:43.396Z,10.80
2018-09-29T07:51:11.754Z,10.90
2018-09-29T07:53:40.184Z,11.20
2018-09-29T07:56:08.844Z,11.40
2018-09-29T07:58:37.319Z,11.70
2018-09-29T08:01:05.778Z,11.90
2018-09-29T08:03:34.088Z,12.20
2018-09-29T08:06:02.358Z,12.30
2018-09-29T08:08:30.605Z,11.90
2018-09-29T08:10:59.124Z,11.80
2018-09-29T08:13:27.442Z,12.00
2018-09-29T08:15:55.770Z,12.40
2018-09-29T08:18:24.110Z,12.30
2018-09-29T08:20:52.450Z,12.00
2018-09-29T08:23:20.688Z,12.10
2018-09-29T08:25:49.006Z,11.90
2018-09-29T08:28:17.307Z,12.00
2018-09-29T08:30:45.759Z,12.40
2018-09-29T08:33:14.186Z,12.70
2018-09-29T08:35:42.455Z,12.70
2018-09-29T08:38:10.923Z,12.90
2018-09-29T08:40:39.205Z,12.80
2018-09-29T08:43:07.575Z,13.00
2018-09-29T08:45:35.896Z,13.40
2018-09-29T08:48:04.846Z,13.70
2018-09-29T08:50:33.257Z,13.90
2018-09-29T08:53:01.855Z,13.70
2018-09-29T08:55:30.030Z,13.70
2018-09-29T08:57:59.179Z,13.80
2018-09-29T09:00:27.458Z,13.80
2018-09-29T09:02:55.753Z,14.30
2018-09-29T09:05:24.030Z,14.70
2018-09-29T09:07:52.514Z,14.60
2018-09-29T09:10:20.972Z,14.30
2018-09-29T09:12:49.297Z,14.30
2018-09-29T09:15:17.543Z,14.40
2018-09-29T09:17:45.887Z,14.40
2018-09-29T09:20:20.858Z,14.30
2018-09-29T09:22:49.265Z,14.20
2018-09-29T09:25:17.547Z,14.10
2018-09-29T09:27:46.019Z,14.20
2018-09-29T09:30:14.378Z,14.30
2018-09-29T09:32:42.646Z,14.40
2018-09-29T09:35:11.001Z,14.70
2018-09-29T09:37:39.320Z,14.70
2018-09-29T09:40:07.877Z,15.00
2018-09-29T09:42:37.406Z,15.30
2018-09-29T09:45:06.699Z,15.40
2018-09-29T09:47:35.090Z,15.30
2018-09-29T09:50:03.522Z,15.10
2018-09-29T09:52:32.198Z,15.00
2018-09-29T09:55:00.533Z,15.40
2018-09-29T09:57:28.870Z,15.80
2018-09-29T09:59:57.175Z,16.00
2018-09-29T10:02:30.766Z,15.70
2018-09-29T10:04:59.045Z,15.60
2018-09-29T10:07:27.302Z,15.60
2018-09-29T10:09:55.598Z,15.80
2018-09-29T10:12:24.014Z,15.90
2018-09-29T10:14:52.497Z,15.80
2018-09-29T10:17:20.787Z,15.90
2018-09-29T10:19:49.121Z,16.00
2018-09-29T10:22:17.386Z,16.10
2018-09-29T10:24:45.684Z,16.20
2018-09-29T10:27:13.954Z,16.00
2018-09-29T10:29:42.235Z,16.10
2018-09-29T10:32:10.598Z,16.00
2018-09-29T10:34:38.973Z,15.70
2018-09-29T10:37:07.243Z,15.70
2018-09-29T10:39:35.957Z,15.60
2018-09-29T10:42:04.315Z,15.40
2018-09-29T10:44:32.659Z,15.30
2018-09-29T10:47:00.969Z,15.20
2018-09-29T10:49:29.221Z,15.10
2018-09-29T10:51:57.599Z,15.40
2018-09-29T10:54:25.975Z,15.50
2018-09-29T10:56:55.194Z,15.10
2018-09-29T10:59:23.478Z,15.00
2018-09-29T11:01:51.754Z,15.10
2018-09-29T11:04:20.045Z,15.10
2018-09-29T11:06:48.367Z,15.10
2018-09-29T11:09:16.586Z,15.20
2018-09-29T11:11:44.895Z,15.00
2018-09-29T11:14:13.445Z,15.10
2018-09-29T11:16:42.286Z,15.00
2018-09-29T11:19:10.773Z,15.00
2018-09-29T11:21:39.153Z,14.90
2018-09-29T11:24:07.496Z,14.90
2018-09-29T11:26:37.521Z,15.10
2018-09-29T11:29:05.945Z,15.00
2018-09-29T11:31:34.390Z,15.00
2018-09-29T11:34:05.391Z,15.10
2018-09-29T11:36:33.793Z,15.10
2018-09-29T11:39:02.108Z,15.00
2018-09-29T11:41:30.434Z,15.10
2018-09-29T11:43:58.767Z,15.20
2018-09-29T11:46:27.031Z,15.30
2018-09-29T11:48:55.343Z,15.30
2018-09-29T11:51:23.702Z,15.10
2018-09-29T11:53:51.943Z,15.10
2018-09-29T11:56:20.758Z,15.00
2018-09-29T11:58:49.046Z,15.00
2018-09-29T12:01:17.830Z,14.90
2018-09-29T12:03:46.150Z,14.90
2018-09-29T12:06:14.442Z,14.90
2018-09-29T12:08:42.925Z,14.80
2018-09-29T12:11:11.945Z,14.80
2018-09-29T12:13:40.935Z,14.90
2018-09-29T12:16:09.246Z,15.00
2018-09-29T12:18:37.703Z,15.10
2018-09-29T12:21:06.101Z,15.20
2018-09-29T12:23:34.468Z,15.20
2018-09-29T12:26:02.807Z,15.30
2018-09-29T12:28:31.436Z,15.30
2018-09-29T12:31:00.014Z,15.40
2018-09-29T12:33:28.314Z,15.40
2018-09-29T12:35:56.640Z,15.50
2018-09-29T12:38:25.075Z,15.40
2018-09-29T12:40:53.384Z,15.20
2018-09-29T12:43:21.774Z,15.30
2018-09-29T12:45:50.049Z,15.50
2018-09-29T12:48:18.356Z,15.50
2018-09-29T12:50:46.634Z,15.50
2018-09-29T12:53:14.958Z,15.60
2018-09-29T12:55:43.232Z,15.60
2018-09-29T12:58:12.016Z,15.60
2018-09-29T13:00:40.276Z,15.70
2018-09-29T13:03:08.688Z,15.70
2018-09-29T13:05:37.045Z,15.60
2018-09-29T13:08:05.434Z,15.60
2018-09-29T13:10:33.801Z,15.60
2018-09-29T13:13:02.070Z,15.60
2018-09-29T13:15:30.433Z,15.70
2018-09-29T13:17:58.735Z,15.80
2018-09-29T13:20:27.136Z,15.80
2018-09-29T13:22:55.433Z,15.80
2018-09-29T13:25:24.027Z,15.70
2018-09-29T13:27:52.424Z,15.80
2018-09-29T13:30:20.736Z,15.80
2018-09-29T13:32:49.030Z,15.90
2018-09-29T13:35:17.273Z,15.80
2018-09-29T13:37:45.544Z,15.70
2018-09-29T13:40:13.892Z,15.80
2018-09-29T13:42:42.150Z,15.80
2018-09-29T13:45:10.596Z,15.90
2018-09-29T13:47:38.994Z,15.70
2018-09-29T13:50:07.565Z,15.70
2018-09-29T13:52:35.960Z,15.50
2018-09-29T13:55:04.281Z,15.60
2018-09-29T13:57:32.618Z,15.50
2018-09-29T14:00:00.893Z,15.70
2018-09-29T14:02:29.170Z,15.60
2018-09-29T14:04:57.486Z,15.60
2018-09-29T14:07:26.322Z,15.70
2018-09-29T14:09:54.766Z,15.70
2018-09-29T14:12:23.191Z,15.70
2018-09-29T14:14:51.619Z,15.60
2018-09-29T14:17:19.975Z,15.60
2018-09-29T14:19:48.267Z,15.70
2018-09-29T14:22:16.669Z,15.70
2018-09-29T14:24:44.946Z,15.70
2018-09-29T14:27:13.517Z,15.60
2018-09-29T14:29:41.818Z,15.70
2018-09-29T14:32:10.302Z,15.60
2018-09-29T14:34:38.729Z,15.40
2018-09-29T14:37:07.153Z,15.50
2018-09-29T14:39:35.516Z,15.50
2018-09-29T14:42:03.833Z,15.50
2018-09-29T14:44:32.210Z,15.50
2018-09-29T14:47:00.461Z,15.40
2018-09-29T14:49:28.738Z,15.40
2018-09-29T14:51:57.021Z,15.40
2018-09-29T14:54:25.290Z,15.40
2018-09-29T14:56:53.776Z,15.40
2018-09-29T14:59:22.121Z,15.40
2018-09-29T15:01:50.528Z,15.30
2018-09-29T15:04:19.022Z,15.30
2018-09-29T15:06:47.366Z,15.30
2018-09-29T15:09:15.750Z,15.30
2018-09-29T15:11:44.021Z,15.20
2018-09-29T15:14:12.848Z,15.20
2018-09-29T15:16:41.185Z,15.20
2018-09-29T15:19:09.579Z,15.30
2018-09-29T15:21:37.941Z,15.30
2018-09-29T15:24:06.662Z,15.20
2018-09-29T15:26:35.099Z,15.10
2018-09-29T15:29:03.436Z,15.10
2018-09-29T15:31:31.729Z,15.10
2018-09-29T15:34:00.096Z,15.10
2018-09-29T15:36:28.340Z,15.10
2018-09-29T15:38:56.621Z,15.10
2018-09-29T15:41:25.075Z,15.10
2018-09-29T15:43:53.275Z,15.10
2018-09-29T15:46:21.659Z,15.10
2018-09-29T15:48:50.084Z,15.20
2018-09-29T15:51:18.451Z,15.00
2018-09-29T15:53:47.321Z,15.00
2018-09-29T15:56:15.698Z,15.00
2018-09-29T15:58:44.857Z,15.10
2018-09-29T16:01:13.140Z,15.10
2018-09-29T16:03:41.497Z,14.90
2018-09-29T16:06:09.829Z,14.90
2018-09-29T16:08:38.106Z,14.90
2018-09-29T16:11:06.414Z,14.90
2018-09-29T16:13:34.880Z,14.80
2018-09-29T16:16:03.397Z,14.80
2018-09-29T16:18:32.131Z,14.70
2018-09-29T16:21:00.458Z,14.70
2018-09-29T16:23:29.012Z,14.70
2018-09-29T16:25:57.342Z,14.60
2018-09-29T16:28:25.814Z,14.60
2018-09-29T16:30:54.453Z,14.50
2018-09-29T16:33:22.892Z,14.50
2018-09-29T16:35:51.256Z,14.50
2018-09-29T16:38:19.679Z,14.50
2018-09-29T16:40:48.002Z,14.40
2018-09-29T16:43:16.383Z,14.40
2018-09-29T16:45:44.655Z,14.40
2018-09-29T16:48:13.332Z,14.40
2018-09-29T16:50:41.641Z,14.40
2018-09-29T16:53:09.946Z,14.40
2018-09-29T16:55:38.388Z,14.20
2018-09-29T16:58:07.589Z,14.00
2018-09-29T17:00:36.053Z,14.00
2018-09-29T17:03:04.784Z,14.00
2018-09-29T17:05:33.110Z,14.00
2018-09-29T17:08:01.516Z,13.90
2018-09-29T17:10:29.871Z,13.80
2018-09-29T17:12:59.023Z,13.80
2018-09-29T17:15:27.397Z,13.70
2018-09-29T17:17:55.675Z,13.70
2018-09-29T17:20:23.945Z,13.60
2018-09-29T17:22:53.350Z,13.60
2018-09-29T17:25:21.698Z,13.60
2018-09-29T17:27:49.949Z,13.60
2018-09-29T17:30:18.385Z,13.50
2018-09-29T17:32:46.663Z,13.40
2018-09-29T17:35:14.940Z,13.40
2018-09-29T17:37:43.220Z,13.40
2018-09-29T17:40:11.556Z,13.40
2018-09-29T17:42:39.959Z,13.40
2018-09-29T17:45:08.235Z,13.30
2018-09-29T17:47:36.621Z,13.30
2018-09-29T17:50:05.518Z,13.20
2018-09-29T17:52:34.011Z,13.20
2018-09-29T17:55:02.284Z,13.00
2018-09-29T17:57:30.653Z,13.00
2018-09-29T17:59:59.017Z,12.90
2018-09-29T18:02:28.482Z,13.00
2018-09-29T18:04:56.928Z,12.80
2018-09-29T18:07:25.340Z,12.70
2018-09-29T18:09:53.595Z,12.60
2018-09-29T18:12:21.961Z,12.60
2018-09-29T18:14:50.734Z,12.60
2018-09-29T18:17:19.170Z,12.50
2018-09-29T18:19:47.487Z,12.50
2018-09-29T18:22:15.782Z,12.40
2018-09-29T18:24:44.100Z,12.30
2018-09-29T18:27:12.636Z,12.30
2018-09-29T18:29:41.005Z,12.20
2018-09-29T18:32:09.566Z,12.10
2018-09-29T18:34:38.125Z,12.10
2018-09-29T18:37:06.519Z,12.00
2018-09-29T18:39:34.855Z,12.00
2018-09-29T18:42:03.190Z,11.90
2018-09-29T18:44:31.772Z,12.00
2018-09-29T18:47:00.445Z,12.10
2018-09-29T18:49:28.824Z,12.10
2018-09-29T18:51:57.486Z,12.00
2018-09-29T18:54:25.843Z,12.10
2018-09-29T18:56:54.259Z,12.00
2018-09-29T18:59:22.509Z,11.90
2018-09-29T19:01:50.743Z,11.90
2018-09-29T19:04:19.171Z,11.90
2018-09-29T19:06:47.473Z,11.90
2018-09-29T19:09:16.264Z,11.90
2018-09-29T19:11:45.348Z,11.80
2018-09-29T19:14:14.272Z,11.80
2018-09-29T19:16:42.606Z,11.70
2018-09-29T19:19:10.937Z,11.70
2018-09-29T19:21:39.205Z,11.60
2018-09-29T19:24:07.537Z,11.60
2018-09-29T19:26:35.809Z,11.60
2018-09-29T19:29:04.500Z,11.60
2018-09-29T19:31:32.993Z,11.60
2018-09-29T19:34:01.308Z,11.40
2018-09-29T19:36:29.837Z,11.40
2018-09-29T19:38:58.872Z,11.20
2018-09-29T19:41:27.313Z,11.10
2018-09-29T19:43:55.667Z,11.00
2018-09-29T19:46:23.996Z,11.00
2018-09-29T19:48:52.415Z,10.90
2018-09-29T19:51:20.758Z,10.90
2018-09-29T19:53:49.049Z,10.80
2018-09-29T19:56:17.703Z,10.90
2018-09-29T19:58:46.240Z,10.80
2018-09-29T20:01:14.648Z,10.70
2018-09-29T20:03:43.129Z,10.70
2018-09-29T20:06:11.558Z,10.80
2018-09-29T20:08:40.050Z,10.90
2018-09-29T20:11:08.679Z,10.90
2018-09-29T20:13:37.274Z,10.90
2018-09-29T20:16:05.682Z,11.00
2018-09-29T20:18:34.035Z,11.00
2018-09-29T20:21:02.391Z,11.00
2018-09-29T20:23:30.675Z,11.10
2018-09-29T20:25:58.978Z,11.10
2018-09-29T20:28:27.443Z,11.00
2018-09-29T20:30:56.517Z,10.90
2018-09-29T20:33:24.901Z,10.80
2018-09-29T20:35:53.383Z,10.80
2018-09-29T20:38:21.919Z,10.70
2018-09-29T20:40:50.293Z,10.50
2018-09-29T20:43:18.703Z,10.60
2018-09-29T20:45:47.067Z,10.60
2018-09-29T20:48:15.426Z,10.60
2018-09-29T20:50:43.680Z,10.60
2018-09-29T20:53:12.085Z,10.60
2018-09-29T20:55:40.526Z,10.50
2018-09-29T20:58:08.889Z,10.50
2018-09-29T21:00:37.246Z,10.60
2018-09-29T21:03:05.858Z,10.60
2018-09-29T21:05:34.234Z,10.50
2018-09-29T21:08:02.880Z,10.50
2018-09-29T21:10:31.402Z,10.20
2018-09-29T21:12:59.938Z,10.00
2018-09-29T21:15:28.386Z,10.00
2018-09-29T21:17:56.755Z,9.90
2018-09-29T21:20:25.069Z,9.70
2018-09-29T21:22:53.908Z,9.60
2018-09-29T21:25:23.167Z,9.60
2018-09-29T21:27:51.433Z,9.60
2018-09-29T21:30:19.801Z,9.60
2018-09-29T21:32:48.127Z,9.60
2018-09-29T21:35:16.525Z,9.70
2018-09-29T21:37:45.209Z,9.70
2018-09-29T21:40:13.704Z,9.70
2018-09-29T21:42:42.137Z,9.70
2018-09-29T21:45:10.658Z,9.60
2018-09-29T21:47:39.079Z,9.50
2018-09-29T21:50:07.679Z,9.60
2018-09-29T21:52:36.561Z,9.50
2018-09-29T21:55:04.851Z,9.60
2018-09-29T21:57:33.115Z,9.50
2018-09-29T22:00:01.393Z,9.50
2018-09-29T22:02:29.729Z,9.60
2018-09-29T22:04:58.037Z,9.70
2018-09-29T22:07:26.324Z,9.70
2018-09-29T22:09:54.579Z,9.70
2018-09-29T22:12:22.785Z,9.70
2018-09-29T22:14:51.057Z,9.70
2018-09-29T22:17:19.431Z,9.60
2018-09-29T22:19:47.701Z,9.60
2018-09-29T22:22:16.142Z,9.60
2018-09-29T22:24:44.595Z,9.50
2018-09-29T22:27:12.849Z,9.40
2018-09-29T22:29:41.256Z,9.40
2018-09-29T22:32:09.656Z,9.30
2018-09-29T22:34:38.060Z,9.20
2018-09-29T22:37:06.571Z,9.10
2018-09-29T22:39:34.843Z,9.10
2018-09-29T22:42:03.364Z,9.20
2018-09-29T22:44:31.726Z,9.20
2018-09-29T22:47:00.927Z,9.30
2018-09-29T22:49:29.258Z,9.40
2018-09-29T22:51:57.591Z,9.50
2018-09-29T22:54:25.828Z,9.50
2018-09-29T22:56:54.048Z,9.60
2018-09-29T22:59:22.359Z,9.60
2018-09-29T23:01:50.647Z,9.60
2018-09-29T23:04:18.904Z,9.50
2018-09-29T23:06:47.145Z,9.40
2018-09-29T23:09:15.410Z,9.50
2018-09-29T23:11:43.838Z,9.40
2018-09-29T23:14:12.457Z,9.30
2018-09-29T23:16:40.752Z,9.10
2018-09-29T23:19:09.132Z,9.00
2018-09-29T23:21:37.566Z,8.90
2018-09-29T23:24:06.135Z,8.80
2018-09-29T23:26:34.622Z,8.60
2018-09-29T23:29:03.094Z,8.70
2018-09-29T23:31:31.367Z,8.60
2018-09-29T23:33:59.752Z,8.70
2018-09-29T23:36:28.186Z,8.80
2018-09-29T23:38:56.443Z,8.80
2018-09-29T23:41:24.902Z,8.80
2018-09-29T23:43:53.189Z,8.80
2018-09-29T23:46:21.644Z,8.80
2018-09-29T23:48:49.897Z,8.70
2018-09-29T23:51:18.142Z,8.70
2018-09-29T23:53:46.371Z,8.80
2018-09-29T23:56:14.618Z,8.80
2018-09-29T23:58:42.884Z,8.80
